createdAt,value
2023-05-21T00:01:01.367Z,15.57
2023-05-21T00:04:23.191Z,15.52
2023-05-21T00:07:45.789Z,15.47
2023-05-21T00:11:08.189Z,15.44
2023-05-21T00:14:29.969Z,15.40
2023-05-21T00:17:53.215Z,15.34
2023-05-21T00:21:17.232Z,15.32
2023-05-21T00:24:38.630Z,15.30
2023-05-21T00:28:00.456Z,15.27
2023-05-21T00:31:22.728Z,15.25
2023-05-21T00:34:46.355Z,15.22
2023-05-21T00:38:08.593Z,15.22
2023-05-21T00:41:30.481Z,15.19
2023-05-21T00:44:54.183Z,15.16
2023-05-21T00:48:15.953Z,15.13
2023-05-21T00:51:38.896Z,15.09
2023-05-21T00:55:00.291Z,15.08
2023-05-21T00:58:22.736Z,15.07
2023-05-21T01:01:45.475Z,15.05
2023-05-21T01:05:08.025Z,15.05
2023-05-21T01:08:31.131Z,15.04
2023-05-21T01:11:53.715Z,15.02
2023-05-21T01:15:15.886Z,15.02
2023-05-21T01:18:38.581Z,15.00
2023-05-21T01:22:04.751Z,14.99
2023-05-21T01:25:28.160Z,14.99
2023-05-21T01:28:49.601Z,14.98
2023-05-21T01:32:19.068Z,14.98
2023-05-21T01:35:45.365Z,14.96
2023-05-21T01:39:12.935Z,14.93
2023-05-21T01:42:38.740Z,14.88
2023-05-21T01:46:02.240Z,14.85
2023-05-21T01:49:24.510Z,14.80
2023-05-21T01:52:52.008Z,14.76
2023-05-21T01:56:14.228Z,14.72
2023-05-21T01:59:37.778Z,14.67
2023-05-21T02:02:59.873Z,14.64
2023-05-21T02:06:21.635Z,14.58
2023-05-21T02:09:42.903Z,14.54
2023-05-21T02:13:04.684Z,14.49
2023-05-21T02:16:28.185Z,14.44
2023-05-21T02:19:49.910Z,14.38
2023-05-21T02:23:11.862Z,14.32
2023-05-21T02:26:33.700Z,14.26
2023-05-21T02:29:55.056Z,14.21
2023-05-21T02:33:19.805Z,14.15
2023-05-21T02:36:41.646Z,14.09
2023-05-21T02:40:06.006Z,14.06
2023-05-21T02:43:27.842Z,14.03
2023-05-21T02:46:49.160Z,13.99
2023-05-21T02:50:15.183Z,13.96
2023-05-21T02:53:42.375Z,13.94
2023-05-21T02:57:04.745Z,13.89
2023-05-21T03:00:26.155Z,13.85
2023-05-21T03:03:48.289Z,13.81
2023-05-21T03:07:13.995Z,13.79
2023-05-21T03:10:35.545Z,13.76
2023-05-21T03:13:57.573Z,13.73
2023-05-21T03:17:19.281Z,13.70
2023-05-21T03:20:43.728Z,13.69
2023-05-21T03:24:07.679Z,13.68
2023-05-21T03:27:29.389Z,13.68
2023-05-21T03:30:52.088Z,13.67
2023-05-21T03:34:39.986Z,13.67
2023-05-21T03:38:01.808Z,13.66
2023-05-21T03:41:25.008Z,13.66
2023-05-21T03:44:51.621Z,13.66
2023-05-21T03:48:40.351Z,13.67
2023-05-21T03:52:04.038Z,13.67
2023-05-21T03:55:25.737Z,13.69
2023-05-21T03:58:49.371Z,13.71
2023-05-21T04:02:12.016Z,13.74
2023-05-21T04:05:33.892Z,13.77
2023-05-21T04:08:55.862Z,13.81
2023-05-21T04:12:18.121Z,13.83
2023-05-21T04:15:41.048Z,13.87
2023-05-21T04:19:02.636Z,13.92
2023-05-21T04:22:26.535Z,13.95
2023-05-21T04:25:50.810Z,13.96
2023-05-21T04:29:13.086Z,13.99
2023-05-21T04:32:36.476Z,14.02
2023-05-21T04:35:58.282Z,14.07
2023-05-21T04:39:20.375Z,14.09
2023-05-21T04:42:42.300Z,14.10
2023-05-21T04:46:05.983Z,14.12
2023-05-21T04:49:29.979Z,14.13
2023-05-21T04:52:51.596Z,14.16
2023-05-21T04:56:12.918Z,14.19
2023-05-21T04:59:34.719Z,14.26
2023-05-21T05:02:56.200Z,14.31
2023-05-21T05:06:19.349Z,14.36
2023-05-21T05:09:41.446Z,14.42
2023-05-21T05:13:03.326Z,14.49
2023-05-21T05:16:26.066Z,14.59
2023-05-21T05:19:50.757Z,14.71
2023-05-21T05:23:14.032Z,14.81
2023-05-21T05:26:35.476Z,14.90
2023-05-21T05:29:57.639Z,15.00
2023-05-21T05:33:19.318Z,15.10
2023-05-21T05:36:41.623Z,15.22
2023-05-21T05:40:05.741Z,15.33
2023-05-21T05:43:27.564Z,15.42
2023-05-21T05:46:50.309Z,15.54
2023-05-21T05:50:12.924Z,15.64
2023-05-21T05:53:34.599Z,15.74
2023-05-21T05:56:57.810Z,15.87
2023-05-21T06:00:20.350Z,15.95
2023-05-21T06:03:43.943Z,16.06
2023-05-21T06:07:09.337Z,16.19
2023-05-21T06:10:31.244Z,16.30
2023-05-21T06:13:54.559Z,16.40
2023-05-21T06:17:16.873Z,16.52
2023-05-21T06:20:38.590Z,16.66
2023-05-21T06:24:00.475Z,16.77
2023-05-21T06:27:23.785Z,16.89
2023-05-21T06:30:47.082Z,16.99
2023-05-21T06:34:08.754Z,17.12
2023-05-21T06:37:30.589Z,17.26
2023-05-21T06:40:52.381Z,17.37
2023-05-21T06:44:30.447Z,17.50
2023-05-21T06:48:29.197Z,17.64
2023-05-21T06:51:51.226Z,17.73
2023-05-21T06:55:12.984Z,17.85
2023-05-21T06:58:55.037Z,17.94
2023-05-21T07:02:17.421Z,18.01
2023-05-21T07:05:40.377Z,18.10
2023-05-21T07:09:02.030Z,18.20
2023-05-21T07:12:25.279Z,18.31
2023-05-21T07:15:46.996Z,18.45
2023-05-21T07:19:09.040Z,18.55
2023-05-21T07:22:32.031Z,18.68
2023-05-21T07:25:54.454Z,18.81
2023-05-21T07:29:16.439Z,18.94
2023-05-21T07:32:38.099Z,19.06
2023-05-21T07:35:59.906Z,19.18
2023-05-21T07:39:23.349Z,19.31
2023-05-21T07:42:45.228Z,19.36
2023-05-21T07:46:08.045Z,19.45
2023-05-21T07:49:29.864Z,19.57
2023-05-21T07:52:51.536Z,19.66
2023-05-21T07:56:16.582Z,19.77
2023-05-21T07:59:38.307Z,19.88
2023-05-21T08:03:01.064Z,19.99
2023-05-21T08:06:24.365Z,20.08
2023-05-21T08:09:46.388Z,20.17
2023-05-21T08:13:09.315Z,20.25
2023-05-21T08:16:31.084Z,20.33
2023-05-21T08:19:52.616Z,20.44
2023-05-21T08:23:14.465Z,20.52
2023-05-21T08:26:44.619Z,20.62
2023-05-21T08:30:11.437Z,20.75
2023-05-21T08:33:33.220Z,20.86
2023-05-21T08:36:55.124Z,20.99
2023-05-21T08:40:47.759Z,21.08
2023-05-21T08:44:13.057Z,21.20
2023-05-21T08:47:37.410Z,21.32
2023-05-21T08:51:01.350Z,21.45
2023-05-21T08:54:28.042Z,21.55
2023-05-21T08:57:50.708Z,21.67
2023-05-21T09:01:13.655Z,21.79
2023-05-21T09:04:41.841Z,21.91
2023-05-21T09:08:08.080Z,22.01
2023-05-21T09:12:02.630Z,22.15
2023-05-21T09:15:25.474Z,22.25
2023-05-21T09:18:47.364Z,22.33
2023-05-21T09:22:14.772Z,22.43
2023-05-21T09:25:39.218Z,22.54
2023-05-21T09:29:05.612Z,22.61
2023-05-21T09:32:27.235Z,22.72
2023-05-21T09:35:49.450Z,22.86
2023-05-21T09:39:16.545Z,22.99
2023-05-21T09:42:40.124Z,23.13
2023-05-21T09:46:02.373Z,23.25
2023-05-21T09:49:28.218Z,23.36
2023-05-21T09:52:52.978Z,23.44
2023-05-21T09:56:16.540Z,23.55
2023-05-21T09:59:38.647Z,23.64
2023-05-21T10:03:07.106Z,23.76
2023-05-21T10:06:31.238Z,23.80
2023-05-21T10:09:55.616Z,23.84
2023-05-21T10:13:21.969Z,23.90
2023-05-21T10:16:44.084Z,23.83
2023-05-21T10:20:08.845Z,23.93
2023-05-21T10:23:31.304Z,24.01
2023-05-21T10:26:53.531Z,24.09
2023-05-21T10:30:17.177Z,24.18
2023-05-21T10:33:39.840Z,24.26
2023-05-21T10:37:03.499Z,24.35
2023-05-21T10:40:25.241Z,24.41
2023-05-21T10:43:57.648Z,24.39
2023-05-21T10:47:54.939Z,24.45
2023-05-21T10:51:21.158Z,24.48
2023-05-21T10:55:15.046Z,24.45
2023-05-21T10:58:52.715Z,24.39
2023-05-21T11:02:16.048Z,24.47
2023-05-21T11:05:42.911Z,24.48
2023-05-21T11:09:30.881Z,24.49
2023-05-21T11:13:14.178Z,24.56
2023-05-21T11:16:37.531Z,24.63
2023-05-21T11:20:07.306Z,24.70
2023-05-21T11:23:49.644Z,24.78
2023-05-21T11:27:12.564Z,24.84
2023-05-21T11:30:35.889Z,24.87
2023-05-21T11:34:10.108Z,24.91
2023-05-21T11:37:34.653Z,24.94
2023-05-21T11:41:04.101Z,24.97
2023-05-21T11:44:42.308Z,25.00
2023-05-21T11:48:06.074Z,24.99
2023-05-21T11:51:27.619Z,25.03
2023-05-21T11:54:51.148Z,25.04
2023-05-21T11:58:16.732Z,25.10
2023-05-21T12:01:39.368Z,25.15
2023-05-21T12:05:03.928Z,25.18
2023-05-21T12:08:25.954Z,25.18
2023-05-21T12:11:47.616Z,25.22
2023-05-21T12:15:13.180Z,25.23
2023-05-21T12:18:34.977Z,25.29
2023-05-21T12:21:56.379Z,25.32
2023-05-21T12:25:19.935Z,25.39
2023-05-21T12:28:42.758Z,25.48
2023-05-21T12:32:09.137Z,25.55
2023-05-21T12:35:32.681Z,25.63
2023-05-21T12:38:54.796Z,25.66
2023-05-21T12:42:17.051Z,25.71
2023-05-21T12:45:40.558Z,25.75
2023-05-21T12:49:04.177Z,25.86
2023-05-21T12:52:27.221Z,25.92
2023-05-21T12:55:48.789Z,25.89
2023-05-21T12:59:14.460Z,25.93
2023-05-21T13:02:39.401Z,25.99
2023-05-21T13:06:04.527Z,26.07
2023-05-21T13:09:26.336Z,26.09
2023-05-21T13:12:47.926Z,26.11
2023-05-21T13:16:10.139Z,26.13
2023-05-21T13:19:31.761Z,26.20
2023-05-21T13:22:55.304Z,26.20
2023-05-21T13:26:17.001Z,26.19
2023-05-21T13:29:38.910Z,26.23
2023-05-21T13:33:00.807Z,26.25
2023-05-21T13:36:22.442Z,26.28
2023-05-21T13:39:46.419Z,26.31
2023-05-21T13:43:07.739Z,26.34
2023-05-21T13:46:29.716Z,26.32
2023-05-21T13:49:52.227Z,26.24
2023-05-21T13:53:14.018Z,26.21
2023-05-21T13:56:37.580Z,26.19
2023-05-21T13:59:59.145Z,26.18
2023-05-21T14:03:20.926Z,26.18
2023-05-21T14:06:42.763Z,26.21
2023-05-21T14:10:04.150Z,26.26
2023-05-21T14:13:27.643Z,26.29
2023-05-21T14:16:49.672Z,26.25
2023-05-21T14:20:12.128Z,26.32
2023-05-21T14:23:33.848Z,26.39
2023-05-21T14:26:55.790Z,26.46
2023-05-21T14:30:18.535Z,26.51
2023-05-21T14:33:39.919Z,26.54
2023-05-21T14:37:01.855Z,26.62
2023-05-21T14:40:23.695Z,26.68
2023-05-21T14:43:45.036Z,26.70
2023-05-21T14:47:08.140Z,26.76
2023-05-21T14:50:29.909Z,26.83
2023-05-21T14:53:52.029Z,26.84
2023-05-21T14:57:13.474Z,26.91
2023-05-21T15:00:36.689Z,26.95
2023-05-21T15:03:59.840Z,27.01
2023-05-21T15:07:21.934Z,27.08
2023-05-21T15:10:43.627Z,27.16
2023-05-21T15:14:04.912Z,27.15
2023-05-21T15:17:26.688Z,27.12
2023-05-21T15:20:49.748Z,27.07
2023-05-21T15:24:11.593Z,26.99
2023-05-21T15:27:33.318Z,26.98
2023-05-21T15:30:55.177Z,26.98
2023-05-21T15:34:18.010Z,26.93
2023-05-21T15:37:40.943Z,26.84
2023-05-21T15:41:02.586Z,26.85
2023-05-21T15:44:26.435Z,26.85
2023-05-21T15:47:48.248Z,26.91
2023-05-21T15:51:10.327Z,26.86
2023-05-21T15:54:33.274Z,26.87
2023-05-21T15:57:55.056Z,26.83
2023-05-21T16:01:17.161Z,26.80
2023-05-21T16:04:38.644Z,26.80
2023-05-21T16:08:00.410Z,26.82
2023-05-21T16:11:23.909Z,26.85
2023-05-21T16:14:46.003Z,26.82
2023-05-21T16:18:08.278Z,26.75
2023-05-21T16:21:29.907Z,26.71
2023-05-21T16:24:51.557Z,26.72
2023-05-21T16:28:14.729Z,26.71
2023-05-21T16:31:37.786Z,26.72
2023-05-21T16:34:59.946Z,26.66
2023-05-21T16:38:22.121Z,26.62
2023-05-21T16:41:44.836Z,26.57
2023-05-21T16:45:09.339Z,26.50
2023-05-21T16:48:30.867Z,26.46
2023-05-21T16:51:52.536Z,26.38
2023-05-21T16:55:13.947Z,26.31
2023-05-21T16:58:37.091Z,26.25
2023-05-21T17:02:00.215Z,26.17
2023-05-21T17:05:22.762Z,26.10
2023-05-21T17:08:44.298Z,26.01
2023-05-21T17:12:06.926Z,25.97
2023-05-21T17:15:28.456Z,25.91
2023-05-21T17:18:51.776Z,25.82
2023-05-21T17:22:15.203Z,25.77
2023-05-21T17:25:37.174Z,25.70
2023-05-21T17:28:58.747Z,25.57
2023-05-21T17:32:20.872Z,25.49
2023-05-21T17:35:44.627Z,25.44
2023-05-21T17:39:06.073Z,25.38
2023-05-21T17:42:28.145Z,25.32
2023-05-21T17:45:49.841Z,25.28
2023-05-21T17:49:11.737Z,25.24
2023-05-21T17:52:34.937Z,25.19
2023-05-21T17:55:56.825Z,25.14
2023-05-21T17:59:18.829Z,25.11
2023-05-21T18:02:41.301Z,25.07
2023-05-21T18:06:03.401Z,24.99
2023-05-21T18:09:26.242Z,24.93
2023-05-21T18:12:48.392Z,24.87
2023-05-21T18:16:10.235Z,24.79
2023-05-21T18:19:32.111Z,24.71
2023-05-21T18:22:54.394Z,24.62
2023-05-21T18:26:18.207Z,24.51
2023-05-21T18:29:40.595Z,24.40
2023-05-21T18:33:02.274Z,24.25
2023-05-21T18:36:26.715Z,24.11
2023-05-21T18:39:48.507Z,23.95
2023-05-21T18:43:11.718Z,23.81
2023-05-21T18:46:33.540Z,23.66
2023-05-21T18:49:55.434Z,23.53
2023-05-21T18:53:18.016Z,23.39
2023-05-21T18:56:39.589Z,23.23
2023-05-21T19:00:03.223Z,23.11
2023-05-21T19:03:25.120Z,23.01
2023-05-21T19:06:47.152Z,22.90
2023-05-21T19:10:09.541Z,22.80
2023-05-21T19:13:31.529Z,22.68
2023-05-21T19:16:54.726Z,22.57
2023-05-21T19:20:24.720Z,22.44
2023-05-21T19:23:53.036Z,22.31
2023-05-21T19:27:16.251Z,22.18
2023-05-21T19:30:38.472Z,22.06
2023-05-21T19:34:01.567Z,21.94
2023-05-21T19:37:23.790Z,21.82
2023-05-21T19:40:45.605Z,21.74
2023-05-21T19:44:07.284Z,21.66
2023-05-21T19:47:30.779Z,21.60
2023-05-21T19:50:54.088Z,21.53
2023-05-21T19:54:16.168Z,21.48
2023-05-21T19:57:39.771Z,21.45
2023-05-21T20:01:01.646Z,21.43
2023-05-21T20:04:23.580Z,21.39
2023-05-21T20:07:47.177Z,21.36
2023-05-21T20:11:09.280Z,21.32
2023-05-21T20:14:33.427Z,21.27
2023-05-21T20:17:55.751Z,21.22
2023-05-21T20:21:18.694Z,21.16
2023-05-21T20:24:41.462Z,21.09
2023-05-21T20:28:04.006Z,21.02
2023-05-21T20:31:27.496Z,20.95
2023-05-21T20:35:01.996Z,20.93
2023-05-21T20:38:25.833Z,20.92
2023-05-21T20:41:49.306Z,20.90
2023-05-21T20:45:12.810Z,20.88
2023-05-21T20:48:35.313Z,20.85
2023-05-21T20:51:57.044Z,20.82
2023-05-21T20:55:20.904Z,20.79
2023-05-21T20:58:44.761Z,20.76
2023-05-21T21:02:10.117Z,20.69
2023-05-21T21:05:32.037Z,20.61
2023-05-21T21:08:55.989Z,20.53
2023-05-21T21:15:44.517Z,20.40
2023-05-21T21:19:06.310Z,20.37
2023-05-21T21:22:29.476Z,20.33
2023-05-21T21:25:51.507Z,20.29
2023-05-21T21:29:12.953Z,20.23
2023-05-21T21:32:36.386Z,20.19
2023-05-21T21:35:58.122Z,20.16
2023-05-21T21:39:19.991Z,20.12
2023-05-21T21:42:43.418Z,20.07
2023-05-21T21:46:05.174Z,20.02
2023-05-21T21:49:28.118Z,19.97
2023-05-21T21:52:50.188Z,19.90
2023-05-21T21:56:11.615Z,19.86
2023-05-21T21:59:33.333Z,19.80
2023-05-21T22:02:55.256Z,19.75
2023-05-21T22:06:18.451Z,19.70
2023-05-21T22:09:40.716Z,19.64
2023-05-21T22:13:02.835Z,19.58
2023-05-21T22:16:25.198Z,19.51
2023-05-21T22:19:47.703Z,19.42
2023-05-21T22:23:10.807Z,19.35
2023-05-21T22:26:32.228Z,19.30
2023-05-21T22:29:54.097Z,19.23
2023-05-21T22:33:16.108Z,19.19
2023-05-21T22:36:38.856Z,19.14
2023-05-21T22:40:02.114Z,19.09
2023-05-21T22:43:23.528Z,19.04
2023-05-21T22:46:47.776Z,18.97
2023-05-21T22:50:11.097Z,18.88
2023-05-21T22:53:33.099Z,18.80
2023-05-21T22:56:55.984Z,18.71
2023-05-21T23:00:19.208Z,18.62
2023-05-21T23:03:41.324Z,18.55
2023-05-21T23:07:03.284Z,18.47
2023-05-21T23:10:25.118Z,18.39
2023-05-21T23:13:48.246Z,18.30
2023-05-21T23:17:10.349Z,18.22
2023-05-21T23:20:35.344Z,18.11
2023-05-21T23:23:56.633Z,18.02
2023-05-21T23:27:18.324Z,17.94
2023-05-21T23:30:41.208Z,17.85
2023-05-21T23:34:04.728Z,17.75
2023-05-21T23:37:26.438Z,17.66
2023-05-21T23:40:48.113Z,17.58
2023-05-21T23:44:09.755Z,17.49
2023-05-21T23:47:32.538Z,17.41
2023-05-21T23:50:54.422Z,17.34
2023-05-21T23:54:16.899Z,17.26
2023-05-21T23:57:39.163Z,17.19
